sensor_id;sensor_type;location;lat;lon;timestamp;pressure;altitude;pressure_sealevel;temperature;humidity
80747;BME280;70144;50.218;14.322;2023-08-30T00:00:54;98223.13;;;14.61;78.39
80747;BME280;70144;50.218;14.322;2023-08-30T00:03:19;98225.56;;;14.54;78.08
80747;BME280;70144;50.218;14.322;2023-08-30T00:05:45;98228.00;;;14.55;77.67
80747;BME280;70144;50.218;14.322;2023-08-30T00:08:10;98239.22;;;14.50;78.47
80747;BME280;70144;50.218;14.322;2023-08-30T00:10:36;98245.53;;;14.51;78.75
80747;BME280;70144;50.218;14.322;2023-08-30T00:13:03;98257.50;;;14.55;78.22
80747;BME280;70144;50.218;14.322;2023-08-30T00:15:28;98256.69;;;14.54;78.36
80747;BME280;70144;50.218;14.322;2023-08-30T00:17:54;98253.78;;;14.51;78.76
80747;BME280;70144;50.218;14.322;2023-08-30T00:20:20;98247.81;;;14.49;79.28
80747;BME280;70144;50.218;14.322;2023-08-30T00:22:47;98251.00;;;14.59;78.45
80747;BME280;70144;50.218;14.322;2023-08-30T00:25:14;98245.66;;;14.54;78.84
80747;BME280;70144;50.218;14.322;2023-08-30T00:27:39;98237.91;;;14.56;78.51
80747;BME280;70144;50.218;14.322;2023-08-30T00:30:05;98234.34;;;14.56;78.56
80747;BME280;70144;50.218;14.322;2023-08-30T00:32:30;98240.66;;;14.56;78.57
80747;BME280;70144;50.218;14.322;2023-08-30T00:34:56;98233.34;;;14.60;78.00
80747;BME280;70144;50.218;14.322;2023-08-30T00:37:21;98235.47;;;14.55;78.91
80747;BME280;70144;50.218;14.322;2023-08-30T00:39:46;98236.59;;;14.54;78.83
80747;BME280;70144;50.218;14.322;2023-08-30T00:42:12;98242.91;;;14.54;78.42
80747;BME280;70144;50.218;14.322;2023-08-30T00:44:37;98237.69;;;14.61;77.86
80747;BME280;70144;50.218;14.322;2023-08-30T00:47:03;98237.81;;;14.65;77.74
80747;BME280;70144;50.218;14.322;2023-08-30T00:49:31;98242.97;;;14.46;79.01
80747;BME280;70144;50.218;14.322;2023-08-30T00:51:59;98246.81;;;14.53;78.61
80747;BME280;70144;50.218;14.322;2023-08-30T00:54:26;98242.59;;;14.56;78.54
80747;BME280;70144;50.218;14.322;2023-08-30T00:56:52;98243.69;;;14.63;78.54
80747;BME280;70144;50.218;14.322;2023-08-30T00:59:18;98242.06;;;14.62;78.81
80747;BME280;70144;50.218;14.322;2023-08-30T01:01:43;98243.81;;;14.67;77.79
80747;BME280;70144;50.218;14.322;2023-08-30T01:04:09;98249.50;;;14.62;78.72
80747;BME280;70144;50.218;14.322;2023-08-30T01:06:35;98242.25;;;14.57;78.30
80747;BME280;70144;50.218;14.322;2023-08-30T01:09:03;98235.59;;;14.58;78.77
80747;BME280;70144;50.218;14.322;2023-08-30T01:11:53;98237.22;;;14.59;78.65
80747;BME280;70144;50.218;14.322;2023-08-30T01:14:29;98231.75;;;14.51;78.65
80747;BME280;70144;50.218;14.322;2023-08-30T01:16:56;98219.34;;;14.45;78.91
80747;BME280;70144;50.218;14.322;2023-08-30T01:20:01;98224.00;;;14.53;78.83
80747;BME280;70144;50.218;14.322;2023-08-30T01:23:02;98223.84;;;14.49;79.23
80747;BME280;70144;50.218;14.322;2023-08-30T01:28:05;98215.44;;;14.46;78.68
80747;BME280;70144;50.218;14.322;2023-08-30T01:30:38;98223.03;;;14.49;78.79
80747;BME280;70144;50.218;14.322;2023-08-30T01:33:05;98226.88;;;14.56;78.76
80747;BME280;70144;50.218;14.322;2023-08-30T01:35:32;98228.16;;;14.59;78.35
80747;BME280;70144;50.218;14.322;2023-08-30T01:38:02;98230.59;;;14.60;78.59
80747;BME280;70144;50.218;14.322;2023-08-30T01:40:31;98221.66;;;14.63;77.85
80747;BME280;70144;50.218;14.322;2023-08-30T01:42:58;98213.78;;;14.53;78.37
80747;BME280;70144;50.218;14.322;2023-08-30T01:45:25;98228.00;;;14.55;78.67
80747;BME280;70144;50.218;14.322;2023-08-30T01:47:51;98220.44;;;14.52;78.47
80747;BME280;70144;50.218;14.322;2023-08-30T01:50:18;98211.69;;;14.50;78.51
80747;BME280;70144;50.218;14.322;2023-08-30T01:52:45;98197.44;;;14.48;78.90
80747;BME280;70144;50.218;14.322;2023-08-30T01:55:12;98218.13;;;14.54;78.82
80747;BME280;70144;50.218;14.322;2023-08-30T01:57:38;98215.06;;;14.56;79.21
80747;BME280;70144;50.218;14.322;2023-08-30T02:00:04;98211.31;;;14.60;78.72
80747;BME280;70144;50.218;14.322;2023-08-30T02:02:30;98210.81;;;14.58;78.61
80747;BME280;70144;50.218;14.322;2023-08-30T02:04:56;98214.06;;;14.60;78.83
80747;BME280;70144;50.218;14.322;2023-08-30T02:10:08;98222.47;;;14.64;78.19
80747;BME280;70144;50.218;14.322;2023-08-30T02:12:41;98218.75;;;14.60;78.67
80747;BME280;70144;50.218;14.322;2023-08-30T02:15:08;98222.78;;;14.62;78.19
80747;BME280;70144;50.218;14.322;2023-08-30T02:17:35;98224.59;;;14.58;78.79
80747;BME280;70144;50.218;14.322;2023-08-30T02:20:02;98214.53;;;14.62;78.80
80747;BME280;70144;50.218;14.322;2023-08-30T02:22:30;98219.84;;;14.67;78.31
80747;BME280;70144;50.218;14.322;2023-08-30T02:24:55;98236.56;;;14.62;78.58
80747;BME280;70144;50.218;14.322;2023-08-30T02:27:21;98225.94;;;14.52;78.51
80747;BME280;70144;50.218;14.322;2023-08-30T02:29:46;98221.16;;;14.61;78.64
80747;BME280;70144;50.218;14.322;2023-08-30T02:32:11;98218.09;;;14.63;78.23
80747;BME280;70144;50.218;14.322;2023-08-30T02:34:37;98212.75;;;14.58;79.05
80747;BME280;70144;50.218;14.322;2023-08-30T02:37:02;98215.19;;;14.59;78.38
80747;BME280;70144;50.218;14.322;2023-08-30T02:39:27;98214.88;;;14.61;78.35
80747;BME280;70144;50.218;14.322;2023-08-30T02:41:53;98214.38;;;14.59;78.20
80747;BME280;70144;50.218;14.322;2023-08-30T02:44:18;98207.25;;;14.58;78.57
80747;BME280;70144;50.218;14.322;2023-08-30T02:46:43;98200.31;;;14.60;78.37
80747;BME280;70144;50.218;14.322;2023-08-30T02:49:09;98204.19;;;14.59;78.51
80747;BME280;70144;50.218;14.322;2023-08-30T02:51:36;98205.00;;;14.60;78.41
80747;BME280;70144;50.218;14.322;2023-08-30T02:54:01;98202.09;;;14.56;78.43
80747;BME280;70144;50.218;14.322;2023-08-30T02:56:27;98204.16;;;14.68;78.02
80747;BME280;70144;50.218;14.322;2023-08-30T02:58:52;98195.44;;;14.57;78.47
80747;BME280;70144;50.218;14.322;2023-08-30T03:01:17;98202.38;;;14.63;77.88
80747;BME280;70144;50.218;14.322;2023-08-30T03:03:43;98198.19;;;14.57;78.37
80747;BME280;70144;50.218;14.322;2023-08-30T03:06:08;98215.66;;;14.61;78.42
80747;BME280;70144;50.218;14.322;2023-08-30T03:08:33;98208.75;;;14.55;78.42
80747;BME280;70144;50.218;14.322;2023-08-30T03:11:12;98215.19;;;14.59;78.53
80747;BME280;70144;50.218;14.322;2023-08-30T03:13:38;98211.03;;;14.53;78.53
80747;BME280;70144;50.218;14.322;2023-08-30T03:16:14;98218.81;;;14.51;78.56
80747;BME280;70144;50.218;14.322;2023-08-30T03:18:41;98220.88;;;14.54;78.82
80747;BME280;70144;50.218;14.322;2023-08-30T03:21:07;98224.94;;;14.57;78.42
80747;BME280;70144;50.218;14.322;2023-08-30T03:23:32;98223.63;;;14.54;78.86
80747;BME280;70144;50.218;14.322;2023-08-30T03:25:59;98222.03;;;14.53;79.19
80747;BME280;70144;50.218;14.322;2023-08-30T03:28:24;98220.44;;;14.52;78.47
80747;BME280;70144;50.218;14.322;2023-08-30T03:30:50;98225.78;;;14.49;78.99
80747;BME280;70144;50.218;14.322;2023-08-30T03:33:15;98231.16;;;14.45;79.57
80747;BME280;70144;50.218;14.322;2023-08-30T03:35:40;98232.25;;;14.53;78.85
80747;BME280;70144;50.218;14.322;2023-08-30T03:38:06;98229.16;;;14.54;78.51
80747;BME280;70144;50.218;14.322;2023-08-30T03:40:32;98236.66;;;14.45;78.53
80747;BME280;70144;50.218;14.322;2023-08-30T03:42:57;98238.59;;;14.45;78.73
80747;BME280;70144;50.218;14.322;2023-08-30T03:45:22;98244.56;;;14.47;79.15
80747;BME280;70144;50.218;14.322;2023-08-30T03:47:48;98238.56;;;14.53;78.92
80747;BME280;70144;50.218;14.322;2023-08-30T03:50:13;98244.38;;;14.52;78.64
80747;BME280;70144;50.218;14.322;2023-08-30T03:52:39;98246.34;;;14.51;78.79
80747;BME280;70144;50.218;14.322;2023-08-30T03:55:04;98244.25;;;14.48;79.45
80747;BME280;70144;50.218;14.322;2023-08-30T03:57:30;98237.63;;;14.49;79.17
80747;BME280;70144;50.218;14.322;2023-08-30T03:59:55;98234.66;;;14.54;79.22
80747;BME280;70144;50.218;14.322;2023-08-30T04:02:20;98226.59;;;14.49;78.76
80747;BME280;70144;50.218;14.322;2023-08-30T04:04:49;98232.56;;;14.51;78.86
80747;BME280;70144;50.218;14.322;2023-08-30T04:07:15;98229.34;;;14.49;78.62
80747;BME280;70144;50.218;14.322;2023-08-30T04:09:41;98238.56;;;14.53;78.11
80747;BME280;70144;50.218;14.322;2023-08-30T04:12:06;98242.91;;;14.54;78.21
80747;BME280;70144;50.218;14.322;2023-08-30T04:14:32;98243.88;;;14.58;78.22
80747;BME280;70144;50.218;14.322;2023-08-30T04:16:57;98238.75;;;14.48;78.38
80747;BME280;70144;50.218;14.322;2023-08-30T04:19:22;98239.69;;;14.52;78.54
80747;BME280;70144;50.218;14.322;2023-08-30T04:21:48;98238.41;;;14.50;78.68
80747;BME280;70144;50.218;14.322;2023-08-30T04:24:14;98246.81;;;14.53;78.20
80747;BME280;70144;50.218;14.322;2023-08-30T04:26:39;98247.16;;;14.52;78.84
80747;BME280;70144;50.218;14.322;2023-08-30T04:29:05;98234.44;;;14.30;79.11
80747;BME280;70144;50.218;14.322;2023-08-30T04:31:30;98247.31;;;14.47;78.50
80747;BME280;70144;50.218;14.322;2023-08-30T04:33:55;98238.59;;;14.45;78.48
80747;BME280;70144;50.218;14.322;2023-08-30T04:36:21;98241.34;;;14.45;78.45
80747;BME280;70144;50.218;14.322;2023-08-30T04:38:47;98250.22;;;14.50;78.51
80747;BME280;70144;50.218;14.322;2023-08-30T04:41:12;98257.66;;;14.50;77.76
80747;BME280;70144;50.218;14.322;2023-08-30T04:43:38;98242.03;;;14.42;78.33
80747;BME280;70144;50.218;14.322;2023-08-30T04:46:03;98253.19;;;14.45;78.55
80747;BME280;70144;50.218;14.322;2023-08-30T04:48:28;98249.75;;;14.48;78.11
80747;BME280;70144;50.218;14.322;2023-08-30T04:51:04;98252.16;;;14.50;78.27
80747;BME280;70144;50.218;14.322;2023-08-30T04:53:30;98253.47;;;14.52;77.77
80747;BME280;70144;50.218;14.322;2023-08-30T04:55:55;98247.53;;;14.42;77.92
80747;BME280;70144;50.218;14.322;2023-08-30T04:58:20;98259.97;;;14.48;77.86
80747;BME280;70144;50.218;14.322;2023-08-30T05:00:46;98248.13;;;14.47;77.71
80747;BME280;70144;50.218;14.322;2023-08-30T05:03:11;98255.94;;;14.45;77.34
80747;BME280;70144;50.218;14.322;2023-08-30T05:05:37;98245.75;;;14.28;78.12
80747;BME280;70144;50.218;14.322;2023-08-30T05:08:03;98257.25;;;14.30;79.13
80747;BME280;70144;50.218;14.322;2023-08-30T05:10:29;98248.38;;;14.25;78.65
80747;BME280;70144;50.218;14.322;2023-08-30T05:12:54;98258.03;;;14.31;78.85
80747;BME280;70144;50.218;14.322;2023-08-30T05:15:19;98251.25;;;14.37;77.88
80747;BME280;70144;50.218;14.322;2023-08-30T05:17:45;98262.38;;;14.49;77.91
80747;BME280;70144;50.218;14.322;2023-08-30T05:20:10;98246.56;;;14.37;77.41
80747;BME280;70144;50.218;14.322;2023-08-30T05:22:36;98251.25;;;14.46;77.50
80747;BME280;70144;50.218;14.322;2023-08-30T05:25:01;98249.94;;;14.43;78.23
80747;BME280;70144;50.218;14.322;2023-08-30T05:27:27;98251.84;;;14.51;77.95
80747;BME280;70144;50.218;14.322;2023-08-30T05:29:52;98245.38;;;14.47;78.05
80747;BME280;70144;50.218;14.322;2023-08-30T05:32:18;98255.88;;;14.54;77.64
80747;BME280;70144;50.218;14.322;2023-08-30T05:34:43;98250.72;;;14.52;77.53
80747;BME280;70144;50.218;14.322;2023-08-30T05:37:08;98254.69;;;14.63;76.65
80747;BME280;70144;50.218;14.322;2023-08-30T05:39:34;98251.66;;;14.56;77.09
80747;BME280;70144;50.218;14.322;2023-08-30T05:42:00;98249.09;;;14.51;77.28
80747;BME280;70144;50.218;14.322;2023-08-30T05:44:25;98251.81;;;14.60;77.07
80747;BME280;70144;50.218;14.322;2023-08-30T05:46:51;98244.50;;;14.64;76.91
80747;BME280;70144;50.218;14.322;2023-08-30T05:49:16;98250.97;;;14.68;76.50
80747;BME280;70144;50.218;14.322;2023-08-30T05:51:42;98261.16;;;14.67;76.50
80747;BME280;70144;50.218;14.322;2023-08-30T05:54:07;98254.03;;;14.66;76.65
80747;BME280;70144;50.218;14.322;2023-08-30T05:56:32;98263.09;;;14.67;76.81
80747;BME280;70144;50.218;14.322;2023-08-30T05:58:58;98259.41;;;14.63;77.27
80747;BME280;70144;50.218;14.322;2023-08-30T06:01:23;98266.19;;;14.65;76.73
80747;BME280;70144;50.218;14.322;2023-08-30T06:03:50;98263.28;;;14.62;76.95
80747;BME280;70144;50.218;14.322;2023-08-30T06:06:15;98268.22;;;14.48;77.60
80747;BME280;70144;50.218;14.322;2023-08-30T06:08:41;98265.59;;;14.51;78.08
80747;BME280;70144;50.218;14.322;2023-08-30T06:11:06;98277.56;;;14.55;77.71
80747;BME280;70144;50.218;14.322;2023-08-30T06:13:31;98275.63;;;14.56;77.79
80747;BME280;70144;50.218;14.322;2023-08-30T06:15:57;98272.72;;;14.61;76.92
80747;BME280;70144;50.218;14.322;2023-08-30T06:18:22;98272.88;;;14.56;77.60
80747;BME280;70144;50.218;14.322;2023-08-30T06:20:49;98274.28;;;14.62;76.82
80747;BME280;70144;50.218;14.322;2023-08-30T06:23:18;98274.66;;;14.60;77.46
80747;BME280;70144;50.218;14.322;2023-08-30T06:25:44;98275.28;;;14.57;78.37
80747;BME280;70144;50.218;14.322;2023-08-30T06:28:09;98272.03;;;14.64;77.24
80747;BME280;70144;50.218;14.322;2023-08-30T06:30:35;98273.97;;;14.63;77.88
80747;BME280;70144;50.218;14.322;2023-08-30T06:33:00;98272.84;;;14.64;77.90
80747;BME280;70144;50.218;14.322;2023-08-30T06:35:26;98284.34;;;14.58;78.16
80747;BME280;70144;50.218;14.322;2023-08-30T06:37:51;98283.06;;;14.64;77.53
80747;BME280;70144;50.218;14.322;2023-08-30T06:40:17;98276.50;;;14.77;76.89
80747;BME280;70144;50.218;14.322;2023-08-30T06:42:43;98282.28;;;14.84;76.71
80747;BME280;70144;50.218;14.322;2023-08-30T06:45:08;98277.97;;;14.74;77.37
80747;BME280;70144;50.218;14.322;2023-08-30T06:47:34;98277.78;;;14.79;77.03
80747;BME280;70144;50.218;14.322;2023-08-30T06:50:00;98282.34;;;14.75;77.08
80747;BME280;70144;50.218;14.322;2023-08-30T06:52:26;98277.97;;;14.74;77.00
80747;BME280;70144;50.218;14.322;2023-08-30T06:54:51;98288.13;;;14.82;76.51
80747;BME280;70144;50.218;14.322;2023-08-30T06:57:17;98283.47;;;14.74;77.30
80747;BME280;70144;50.218;14.322;2023-08-30T06:59:42;98290.09;;;14.82;76.94
80747;BME280;70144;50.218;14.322;2023-08-30T07:02:08;98286.19;;;14.83;77.22
80747;BME280;70144;50.218;14.322;2023-08-30T07:04:33;98285.56;;;14.77;77.22
80747;BME280;70144;50.218;14.322;2023-08-30T07:06:58;98282.81;;;14.77;76.95
80747;BME280;70144;50.218;14.322;2023-08-30T07:09:24;98288.47;;;14.81;77.43
80747;BME280;70144;50.218;14.322;2023-08-30T07:11:57;98283.31;;;15.00;75.93
80747;BME280;70144;50.218;14.322;2023-08-30T07:14:23;98290.19;;;14.94;76.44
80747;BME280;70144;50.218;14.322;2023-08-30T07:16:48;98287.97;;;14.87;77.69
80747;BME280;70144;50.218;14.322;2023-08-30T07:19:15;98280.97;;;14.90;77.48
80747;BME280;70144;50.218;14.322;2023-08-30T07:21:42;98277.00;;;15.00;77.52
80747;BME280;70144;50.218;14.322;2023-08-30T07:24:07;98268.56;;;15.05;76.35
80747;BME280;70144;50.218;14.322;2023-08-30T07:26:33;98278.16;;;14.99;76.95
80747;BME280;70144;50.218;14.322;2023-08-30T07:28:58;98278.94;;;14.99;77.30
80747;BME280;70144;50.218;14.322;2023-08-30T07:31:23;98285.28;;;15.00;77.13
80747;BME280;70144;50.218;14.322;2023-08-30T07:33:49;98291.00;;;14.95;77.82
80747;BME280;70144;50.218;14.322;2023-08-30T07:36:14;98281.38;;;15.01;77.71
80747;BME280;70144;50.218;14.322;2023-08-30T07:38:40;98279.31;;;15.18;75.82
80747;BME280;70144;50.218;14.322;2023-08-30T07:41:05;98280.25;;;15.22;76.77
80747;BME280;70144;50.218;14.322;2023-08-30T07:43:31;98271.47;;;15.29;76.31
80747;BME280;70144;50.218;14.322;2023-08-30T07:45:57;98285.31;;;15.41;76.16
80747;BME280;70144;50.218;14.322;2023-08-30T07:48:22;98289.66;;;15.51;75.66
80747;BME280;70144;50.218;14.322;2023-08-30T07:50:48;98294.13;;;15.76;73.05
80747;BME280;70144;50.218;14.322;2023-08-30T07:53:13;98292.31;;;15.80;74.25
80747;BME280;70144;50.218;14.322;2023-08-30T07:55:38;98283.34;;;15.83;74.18
80747;BME280;70144;50.218;14.322;2023-08-30T07:58:04;98290.50;;;15.84;75.50
80747;BME280;70144;50.218;14.322;2023-08-30T08:00:29;98293.19;;;15.93;73.89
80747;BME280;70144;50.218;14.322;2023-08-30T08:02:55;98283.06;;;15.97;72.34
80747;BME280;70144;50.218;14.322;2023-08-30T08:05:20;98283.28;;;15.92;73.02
80747;BME280;70144;50.218;14.322;2023-08-30T08:07:45;98293.94;;;16.14;72.11
80747;BME280;70144;50.218;14.322;2023-08-30T08:10:11;98292.69;;;16.23;71.69
80747;BME280;70144;50.218;14.322;2023-08-30T08:12:37;98286.81;;;16.25;73.30
80747;BME280;70144;50.218;14.322;2023-08-30T08:15:04;98270.66;;;16.36;72.61
80747;BME280;70144;50.218;14.322;2023-08-30T08:17:29;98282.72;;;16.55;71.70
80747;BME280;70144;50.218;14.322;2023-08-30T08:19:54;98293.78;;;16.43;72.20
80747;BME280;70144;50.218;14.322;2023-08-30T08:22:20;98286.41;;;16.35;70.92
80747;BME280;70144;50.218;14.322;2023-08-30T08:24:45;98283.13;;;16.21;72.18
80747;BME280;70144;50.218;14.322;2023-08-30T08:27:11;98282.59;;;16.27;73.77
80747;BME280;70144;50.218;14.322;2023-08-30T08:29:37;98291.22;;;16.38;72.52
80747;BME280;70144;50.218;14.322;2023-08-30T08:32:03;98286.88;;;16.49;72.11
80747;BME280;70144;50.218;14.322;2023-08-30T08:34:28;98286.31;;;16.56;71.30
80747;BME280;70144;50.218;14.322;2023-08-30T08:36:54;98291.97;;;16.59;71.79
80747;BME280;70144;50.218;14.322;2023-08-30T08:39:19;98287.59;;;16.70;71.32
80747;BME280;70144;50.218;14.322;2023-08-30T08:41:45;98297.31;;;16.89;69.49
80747;BME280;70144;50.218;14.322;2023-08-30T08:44:11;98303.25;;;16.66;70.73
80747;BME280;70144;50.218;14.322;2023-08-30T08:46:41;98294.88;;;16.75;70.01
80747;BME280;70144;50.218;14.322;2023-08-30T08:49:14;98306.03;;;16.78;70.01
80747;BME280;70144;50.218;14.322;2023-08-30T08:51:40;98303.53;;;16.73;70.56
80747;BME280;70144;50.218;14.322;2023-08-30T08:54:07;98307.19;;;16.65;71.82
80747;BME280;70144;50.218;14.322;2023-08-30T08:56:34;98305.09;;;16.74;70.34
80747;BME280;70144;50.218;14.322;2023-08-30T08:59:00;98313.88;;;16.89;69.74
80747;BME280;70144;50.218;14.322;2023-08-30T09:01:27;98309.41;;;16.96;70.64
80747;BME280;70144;50.218;14.322;2023-08-30T09:03:52;98320.56;;;17.00;69.24
80747;BME280;70144;50.218;14.322;2023-08-30T09:06:18;98313.31;;;17.19;69.23
80747;BME280;70144;50.218;14.322;2023-08-30T09:08:44;98308.44;;;17.28;68.65
80747;BME280;70144;50.218;14.322;2023-08-30T09:11:09;98303.00;;;17.32;68.33
80747;BME280;70144;50.218;14.322;2023-08-30T09:13:35;98311.16;;;17.53;67.68
80747;BME280;70144;50.218;14.322;2023-08-30T09:16:00;98316.13;;;17.47;68.62
80747;BME280;70144;50.218;14.322;2023-08-30T09:18:25;98315.00;;;17.24;68.60
80747;BME280;70144;50.218;14.322;2023-08-30T09:21:11;98320.19;;;17.38;68.70
80747;BME280;70144;50.218;14.322;2023-08-30T09:23:37;98321.53;;;17.68;66.47
80747;BME280;70144;50.218;14.322;2023-08-30T09:26:04;98315.78;;;17.61;66.61
80747;BME280;70144;50.218;14.322;2023-08-30T09:28:29;98314.28;;;17.63;66.10
80747;BME280;70144;50.218;14.322;2023-08-30T09:30:57;98321.66;;;17.59;64.67
80747;BME280;70144;50.218;14.322;2023-08-30T09:33:31;98319.00;;;17.63;67.45
80747;BME280;70144;50.218;14.322;2023-08-30T09:35:57;98317.75;;;17.36;63.86
80747;BME280;70144;50.218;14.322;2023-08-30T09:38:23;98320.16;;;17.50;67.39
80747;BME280;70144;50.218;14.322;2023-08-30T09:40:48;98320.03;;;17.58;65.58
80747;BME280;70144;50.218;14.322;2023-08-30T09:43:18;98317.94;;;17.67;65.98
80747;BME280;70144;50.218;14.322;2023-08-30T09:45:44;98320.91;;;17.74;65.40
80747;BME280;70144;50.218;14.322;2023-08-30T09:48:09;98319.31;;;17.73;64.26
80747;BME280;70144;50.218;14.322;2023-08-30T09:50:36;98323.88;;;17.82;64.86
80747;BME280;70144;50.218;14.322;2023-08-30T09:53:06;98322.97;;;17.78;65.59
80747;BME280;70144;50.218;14.322;2023-08-30T09:55:33;98308.81;;;18.07;63.89
80747;BME280;70144;50.218;14.322;2023-08-30T09:57:59;98305.72;;;18.24;64.41
80747;BME280;70144;50.218;14.322;2023-08-30T10:00:25;98316.16;;;18.31;65.29
80747;BME280;70144;50.218;14.322;2023-08-30T10:02:51;98321.44;;;18.20;62.13
80747;BME280;70144;50.218;14.322;2023-08-30T10:05:16;98324.00;;;18.13;63.33
80747;BME280;70144;50.218;14.322;2023-08-30T10:07:43;98329.28;;;18.18;65.40
80747;BME280;70144;50.218;14.322;2023-08-30T10:10:10;98322.91;;;18.02;64.65
80747;BME280;70144;50.218;14.322;2023-08-30T10:12:36;98321.50;;;17.80;63.86
80747;BME280;70144;50.218;14.322;2023-08-30T10:15:01;98324.16;;;17.77;65.37
80747;BME280;70144;50.218;14.322;2023-08-30T10:17:31;98310.56;;;17.71;63.76
80747;BME280;70144;50.218;14.322;2023-08-30T10:19:57;98316.31;;;17.66;67.10
80747;BME280;70144;50.218;14.322;2023-08-30T10:22:24;98313.53;;;17.79;66.37
80747;BME280;70144;50.218;14.322;2023-08-30T10:25:00;98314.03;;;17.68;66.58
80747;BME280;70144;50.218;14.322;2023-08-30T10:27:30;98314.97;;;17.60;65.90
80747;BME280;70144;50.218;14.322;2023-08-30T10:29:58;98315.09;;;17.40;66.03
80747;BME280;70144;50.218;14.322;2023-08-30T10:32:24;98322.22;;;17.53;66.26
80747;BME280;70144;50.218;14.322;2023-08-30T10:34:51;98313.94;;;17.53;66.53
80747;BME280;70144;50.218;14.322;2023-08-30T10:37:21;98311.19;;;17.41;66.52
80747;BME280;70144;50.218;14.322;2023-08-30T10:39:48;98311.09;;;17.25;68.03
80747;BME280;70144;50.218;14.322;2023-08-30T10:42:17;98322.16;;;17.25;68.21
80747;BME280;70144;50.218;14.322;2023-08-30T10:47:34;98320.72;;;17.67;66.95
80747;BME280;70144;50.218;14.322;2023-08-30T10:50:12;98310.56;;;17.71;67.03
80747;BME280;70144;50.218;14.322;2023-08-30T10:52:38;98319.13;;;17.94;65.82
80747;BME280;70144;50.218;14.322;2023-08-30T10:55:11;98311.78;;;18.14;64.06
80747;BME280;70144;50.218;14.322;2023-08-30T10:57:40;98303.28;;;18.07;64.40
80747;BME280;70144;50.218;14.322;2023-08-30T11:00:17;98313.44;;;18.46;67.52
80747;BME280;70144;50.218;14.322;2023-08-30T11:02:51;98309.72;;;18.70;64.09
80747;BME280;70144;50.218;14.322;2023-08-30T11:05:18;98306.94;;;19.01;65.88
80747;BME280;70144;50.218;14.322;2023-08-30T11:07:44;98304.75;;;19.26;63.96
80747;BME280;70144;50.218;14.322;2023-08-30T11:10:10;98299.28;;;19.45;62.24
80747;BME280;70144;50.218;14.322;2023-08-30T11:12:35;98294.72;;;19.22;63.09
80747;BME280;70144;50.218;14.322;2023-08-30T11:15:01;98294.41;;;19.07;61.02
80747;BME280;70144;50.218;14.322;2023-08-30T11:17:28;98298.16;;;19.15;60.42
80747;BME280;70144;50.218;14.322;2023-08-30T11:20:10;98294.63;;;18.83;64.02
80747;BME280;70144;50.218;14.322;2023-08-30T11:22:46;98296.69;;;18.71;66.00
80747;BME280;70144;50.218;14.322;2023-08-30T11:25:14;98297.91;;;18.73;63.43
80747;BME280;70144;50.218;14.322;2023-08-30T11:27:40;98294.50;;;18.80;64.32
80747;BME280;70144;50.218;14.322;2023-08-30T11:30:07;98287.09;;;18.84;60.52
80747;BME280;70144;50.218;14.322;2023-08-30T11:32:34;98293.66;;;19.26;59.72
80747;BME280;70144;50.218;14.322;2023-08-30T11:35:00;98285.22;;;19.38;60.20
80747;BME280;70144;50.218;14.322;2023-08-30T11:37:28;98291.13;;;20.10;61.16
80747;BME280;70144;50.218;14.322;2023-08-30T11:39:58;98284.03;;;21.00;56.19
80747;BME280;70144;50.218;14.322;2023-08-30T11:42:23;98282.91;;;21.57;56.88
80747;BME280;70144;50.218;14.322;2023-08-30T11:44:50;98280.72;;;22.03;55.53
80747;BME280;70144;50.218;14.322;2023-08-30T11:47:22;98273.97;;;22.04;52.19
80747;BME280;70144;50.218;14.322;2023-08-30T11:49:48;98269.19;;;22.41;55.34
80747;BME280;70144;50.218;14.322;2023-08-30T11:52:16;98268.13;;;22.93;52.31
80747;BME280;70144;50.218;14.322;2023-08-30T11:54:43;98272.56;;;23.63;50.84
80747;BME280;70144;50.218;14.322;2023-08-30T11:57:08;98261.94;;;23.97;48.83
80747;BME280;70144;50.218;14.322;2023-08-30T11:59:37;98264.00;;;24.07;50.03
80747;BME280;70144;50.218;14.322;2023-08-30T12:02:03;98267.97;;;24.10;49.88
80747;BME280;70144;50.218;14.322;2023-08-30T12:04:29;98259.91;;;23.87;51.21
80747;BME280;70144;50.218;14.322;2023-08-30T12:06:55;98264.88;;;24.29;47.17
80747;BME280;70144;50.218;14.322;2023-08-30T12:09:21;98269.31;;;24.55;49.52
80747;BME280;70144;50.218;14.322;2023-08-30T12:11:49;98268.97;;;25.06;46.59
80747;BME280;70144;50.218;14.322;2023-08-30T12:14:15;98262.94;;;25.28;47.90
80747;BME280;70144;50.218;14.322;2023-08-30T12:16:40;98252.31;;;26.03;46.87
80747;BME280;70144;50.218;14.322;2023-08-30T12:19:10;98258.97;;;27.37;43.97
80747;BME280;70144;50.218;14.322;2023-08-30T12:21:42;98258.69;;;26.11;44.67
80747;BME280;70144;50.218;14.322;2023-08-30T12:24:08;98256.50;;;25.63;44.94
80747;BME280;70144;50.218;14.322;2023-08-30T12:26:33;98250.25;;;26.84;40.35
80747;BME280;70144;50.218;14.322;2023-08-30T12:28:59;98250.72;;;28.55;42.17
80747;BME280;70144;50.218;14.322;2023-08-30T12:31:24;98247.94;;;29.51;37.39
80747;BME280;70144;50.218;14.322;2023-08-30T12:33:49;98235.03;;;29.31;35.29
80747;BME280;70144;50.218;14.322;2023-08-30T12:36:14;98238.47;;;29.81;35.46
80747;BME280;70144;50.218;14.322;2023-08-30T12:38:40;98231.88;;;30.95;35.79
80747;BME280;70144;50.218;14.322;2023-08-30T12:41:05;98235.34;;;29.76;32.59
80747;BME280;70144;50.218;14.322;2023-08-30T12:43:30;98232.25;;;29.04;37.21
80747;BME280;70144;50.218;14.322;2023-08-30T12:45:56;98226.34;;;29.41;38.80
80747;BME280;70144;50.218;14.322;2023-08-30T12:48:21;98220.81;;;28.11;37.91
80747;BME280;70144;50.218;14.322;2023-08-30T12:50:47;98230.34;;;27.12;38.53
80747;BME280;70144;50.218;14.322;2023-08-30T12:53:13;98215.59;;;25.73;39.24
80747;BME280;70144;50.218;14.322;2023-08-30T12:55:40;98226.47;;;25.50;44.19